Rensselaerville, New York
Current Conditions -  °F | °C
As of 11:51 PM on Friday 28 Nov 2014 (Local Time) from KALB Reporting Station
Scattered Clouds Scattered Clouds  
Wind Chill: 19°   Ceiling: Unl
Heat Index: 19°   Visibility: 10mi
Dew Point: 11°   Wind: 3mph
Humidity: 71%   Direction: 220°SW
Pressure: 30.24"   Gusts: NA
Location:  42.52°N, 74.14°W
Report Text: KALB 290451Z 22003KT 10SM FEW040 SCT049 M07/M12 A3024 RMK AO2 SLP246 T10721117 410061072
Loading
Personal Weather Stations






























Interactive Weather Map New forecast layout! Learn more

10-Day Weather Forecast

Advertisements
Track Severe Weather on mobile